sensor_id;sensor_type;location;lat;lon;timestamp;temperature;humidity
42097;DHT22;27754;45.414;11.084;2023-05-07T00:02:14;17.50;83.30
42097;DHT22;27754;45.414;11.084;2023-05-07T00:04:42;17.50;83.20
42097;DHT22;27754;45.414;11.084;2023-05-07T00:07:09;17.50;83.10
42097;DHT22;27754;45.414;11.084;2023-05-07T00:09:36;17.40;83.20
42097;DHT22;27754;45.414;11.084;2023-05-07T00:12:03;17.40;83.30
42097;DHT22;27754;45.414;11.084;2023-05-07T00:14:30;17.30;83.50
42097;DHT22;27754;45.414;11.084;2023-05-07T00:16:57;17.40;83.60
42097;DHT22;27754;45.414;11.084;2023-05-07T00:19:24;17.30;83.50
42097;DHT22;27754;45.414;11.084;2023-05-07T00:21:51;17.50;82.80
42097;DHT22;27754;45.414;11.084;2023-05-07T00:24:20;17.40;82.50
42097;DHT22;27754;45.414;11.084;2023-05-07T00:26:47;17.40;82.40
42097;DHT22;27754;45.414;11.084;2023-05-07T00:29:14;17.40;82.40
42097;DHT22;27754;45.414;11.084;2023-05-07T00:31:41;17.30;82.20
42097;DHT22;27754;45.414;11.084;2023-05-07T00:34:08;17.30;82.20
42097;DHT22;27754;45.414;11.084;2023-05-07T00:36:35;17.30;82.30
42097;DHT22;27754;45.414;11.084;2023-05-07T00:39:02;17.30;82.10
42097;DHT22;27754;45.414;11.084;2023-05-07T00:41:30;17.30;82.00
42097;DHT22;27754;45.414;11.084;2023-05-07T00:43:57;17.20;82.40
42097;DHT22;27754;45.414;11.084;2023-05-07T00:46:24;17.10;82.60
42097;DHT22;27754;45.414;11.084;2023-05-07T00:48:53;17.20;82.40
42097;DHT22;27754;45.414;11.084;2023-05-07T00:51:20;17.20;82.70
42097;DHT22;27754;45.414;11.084;2023-05-07T00:53:47;17.20;82.80
42097;DHT22;27754;45.414;11.084;2023-05-07T00:56:14;17.20;82.90
42097;DHT22;27754;45.414;11.084;2023-05-07T00:58:42;17.10;82.90
42097;DHT22;27754;45.414;11.084;2023-05-07T01:01:09;17.10;83.00
42097;DHT22;27754;45.414;11.084;2023-05-07T01:03:36;17.10;83.10
42097;DHT22;27754;45.414;11.084;2023-05-07T01:06:04;17.10;83.00
42097;DHT22;27754;45.414;11.084;2023-05-07T01:08:34;17.10;83.20
42097;DHT22;27754;45.414;11.084;2023-05-07T01:11:02;17.10;83.20
42097;DHT22;27754;45.414;11.084;2023-05-07T01:13:30;17.10;83.10
42097;DHT22;27754;45.414;11.084;2023-05-07T01:15:57;17.10;83.00
42097;DHT22;27754;45.414;11.084;2023-05-07T01:18:24;17.10;82.90
42097;DHT22;27754;45.414;11.084;2023-05-07T01:20:52;17.20;82.90
42097;DHT22;27754;45.414;11.084;2023-05-07T01:23:21;17.20;82.80
42097;DHT22;27754;45.414;11.084;2023-05-07T01:25:54;17.20;82.80
42097;DHT22;27754;45.414;11.084;2023-05-07T01:28:24;17.20;82.90
42097;DHT22;27754;45.414;11.084;2023-05-07T01:31:00;17.30;83.00
42097;DHT22;27754;45.414;11.084;2023-05-07T01:33:31;17.30;82.90
42097;DHT22;27754;45.414;11.084;2023-05-07T01:35:59;17.20;83.00
42097;DHT22;27754;45.414;11.084;2023-05-07T01:38:30;17.20;82.70
42097;DHT22;27754;45.414;11.084;2023-05-07T01:40:58;17.30;82.60
42097;DHT22;27754;45.414;11.084;2023-05-07T01:43:25;17.30;82.60
42097;DHT22;27754;45.414;11.084;2023-05-07T01:45:53;17.30;82.60
42097;DHT22;27754;45.414;11.084;2023-05-07T01:48:21;17.30;82.50
42097;DHT22;27754;45.414;11.084;2023-05-07T01:50:48;17.40;82.40
42097;DHT22;27754;45.414;11.084;2023-05-07T01:53:15;17.40;82.40
42097;DHT22;27754;45.414;11.084;2023-05-07T01:55:42;17.40;82.30
42097;DHT22;27754;45.414;11.084;2023-05-07T01:58:09;17.40;82.60
42097;DHT22;27754;45.414;11.084;2023-05-07T02:00:37;17.30;82.30
42097;DHT22;27754;45.414;11.084;2023-05-07T02:03:04;17.10;83.10
42097;DHT22;27754;45.414;11.084;2023-05-07T02:05:41;17.10;83.30
42097;DHT22;27754;45.414;11.084;2023-05-07T02:08:31;17.20;83.40
42097;DHT22;27754;45.414;11.084;2023-05-07T02:10:59;17.10;83.50
42097;DHT22;27754;45.414;11.084;2023-05-07T02:13:31;16.90;83.60
42097;DHT22;27754;45.414;11.084;2023-05-07T02:15:58;16.90;84.10
42097;DHT22;27754;45.414;11.084;2023-05-07T02:18:27;16.90;84.10
42097;DHT22;27754;45.414;11.084;2023-05-07T02:20:54;16.80;83.90
42097;DHT22;27754;45.414;11.084;2023-05-07T02:23:21;16.80;84.40
42097;DHT22;27754;45.414;11.084;2023-05-07T02:25:48;16.80;84.10
42097;DHT22;27754;45.414;11.084;2023-05-07T02:28:15;16.70;84.40
42097;DHT22;27754;45.414;11.084;2023-05-07T02:30:56;16.60;84.80
42097;DHT22;27754;45.414;11.084;2023-05-07T02:33:25;16.60;84.90
42097;DHT22;27754;45.414;11.084;2023-05-07T02:35:53;16.60;84.80
42097;DHT22;27754;45.414;11.084;2023-05-07T02:38:20;16.60;84.70
42097;DHT22;27754;45.414;11.084;2023-05-07T02:40:47;16.60;84.40
42097;DHT22;27754;45.414;11.084;2023-05-07T02:43:15;16.50;85.00
42097;DHT22;27754;45.414;11.084;2023-05-07T02:45:45;16.40;85.10
42097;DHT22;27754;45.414;11.084;2023-05-07T02:48:13;16.30;85.60
42097;DHT22;27754;45.414;11.084;2023-05-07T02:50:40;16.40;86.00
42097;DHT22;27754;45.414;11.084;2023-05-07T02:53:07;16.40;85.60
42097;DHT22;27754;45.414;11.084;2023-05-07T02:55:34;16.30;85.80
42097;DHT22;27754;45.414;11.084;2023-05-07T02:58:01;16.30;86.00
42097;DHT22;27754;45.414;11.084;2023-05-07T03:00:32;16.40;85.90
42097;DHT22;27754;45.414;11.084;2023-05-07T03:03:22;16.40;85.80
42097;DHT22;27754;45.414;11.084;2023-05-07T03:05:49;16.30;85.40
42097;DHT22;27754;45.414;11.084;2023-05-07T03:08:16;16.30;85.70
42097;DHT22;27754;45.414;11.084;2023-05-07T03:10:43;16.30;85.80
42097;DHT22;27754;45.414;11.084;2023-05-07T03:13:10;16.30;85.90
42097;DHT22;27754;45.414;11.084;2023-05-07T03:15:38;16.20;85.50
42097;DHT22;27754;45.414;11.084;2023-05-07T03:18:05;16.10;86.60
42097;DHT22;27754;45.414;11.084;2023-05-07T03:20:32;16.20;86.90
42097;DHT22;27754;45.414;11.084;2023-05-07T03:22:59;16.20;86.90
42097;DHT22;27754;45.414;11.084;2023-05-07T03:25:28;16.30;86.90
42097;DHT22;27754;45.414;11.084;2023-05-07T03:27:56;16.30;86.80
42097;DHT22;27754;45.414;11.084;2023-05-07T03:30:28;16.30;86.40
42097;DHT22;27754;45.414;11.084;2023-05-07T03:32:55;16.30;86.20
42097;DHT22;27754;45.414;11.084;2023-05-07T03:35:22;16.40;86.10
42097;DHT22;27754;45.414;11.084;2023-05-07T03:37:50;16.40;86.10
42097;DHT22;27754;45.414;11.084;2023-05-07T03:40:17;16.40;85.60
42097;DHT22;27754;45.414;11.084;2023-05-07T03:42:49;16.40;85.60
42097;DHT22;27754;45.414;11.084;2023-05-07T03:45:18;16.40;85.50
42097;DHT22;27754;45.414;11.084;2023-05-07T03:47:52;16.40;85.20
42097;DHT22;27754;45.414;11.084;2023-05-07T03:50:21;16.40;85.20
42097;DHT22;27754;45.414;11.084;2023-05-07T03:52:48;16.50;85.20
42097;DHT22;27754;45.414;11.084;2023-05-07T03:55:18;16.50;85.10
42097;DHT22;27754;45.414;11.084;2023-05-07T03:57:50;16.50;84.80
42097;DHT22;27754;45.414;11.084;2023-05-07T04:00:18;16.50;84.90
42097;DHT22;27754;45.414;11.084;2023-05-07T04:02:46;16.50;84.90
42097;DHT22;27754;45.414;11.084;2023-05-07T04:05:18;16.50;84.70
42097;DHT22;27754;45.414;11.084;2023-05-07T04:07:48;16.50;84.60
42097;DHT22;27754;45.414;11.084;2023-05-07T04:10:19;16.60;84.60
42097;DHT22;27754;45.414;11.084;2023-05-07T04:12:49;16.60;84.50
42097;DHT22;27754;45.414;11.084;2023-05-07T04:15:20;16.60;84.30
42097;DHT22;27754;45.414;11.084;2023-05-07T04:17:47;16.70;84.20
42097;DHT22;27754;45.414;11.084;2023-05-07T04:20:16;16.80;84.00
42097;DHT22;27754;45.414;11.084;2023-05-07T04:22:49;16.80;83.80
42097;DHT22;27754;45.414;11.084;2023-05-07T04:25:16;16.90;83.60
42097;DHT22;27754;45.414;11.084;2023-05-07T04:27:43;16.90;83.50
42097;DHT22;27754;45.414;11.084;2023-05-07T04:30:13;17.00;83.40
42097;DHT22;27754;45.414;11.084;2023-05-07T04:32:40;17.10;83.20
42097;DHT22;27754;45.414;11.084;2023-05-07T04:35:08;17.10;83.00
42097;DHT22;27754;45.414;11.084;2023-05-07T04:37:35;17.20;82.80
42097;DHT22;27754;45.414;11.084;2023-05-07T04:40:03;17.30;82.50
42097;DHT22;27754;45.414;11.084;2023-05-07T04:42:30;17.40;82.50
42097;DHT22;27754;45.414;11.084;2023-05-07T04:45:01;17.50;82.00
42097;DHT22;27754;45.414;11.084;2023-05-07T04:47:31;17.60;81.70
42097;DHT22;27754;45.414;11.084;2023-05-07T04:50:00;17.80;81.30
42097;DHT22;27754;45.414;11.084;2023-05-07T04:52:27;17.90;81.10
42097;DHT22;27754;45.414;11.084;2023-05-07T04:54:55;18.10;80.70
42097;DHT22;27754;45.414;11.084;2023-05-07T04:57:22;18.30;80.10
42097;DHT22;27754;45.414;11.084;2023-05-07T04:59:49;18.40;79.70
42097;DHT22;27754;45.414;11.084;2023-05-07T05:02:16;18.40;80.10
42097;DHT22;27754;45.414;11.084;2023-05-07T05:04:46;18.40;79.50
42097;DHT22;27754;45.414;11.084;2023-05-07T05:07:14;18.30;79.90
42097;DHT22;27754;45.414;11.084;2023-05-07T05:09:41;18.30;79.70
42097;DHT22;27754;45.414;11.084;2023-05-07T05:12:08;18.30;79.70
42097;DHT22;27754;45.414;11.084;2023-05-07T05:14:37;18.40;79.50
42097;DHT22;27754;45.414;11.084;2023-05-07T05:17:04;18.50;79.10
42097;DHT22;27754;45.414;11.084;2023-05-07T05:19:32;18.50;79.50
42097;DHT22;27754;45.414;11.084;2023-05-07T05:21:59;18.60;79.70
42097;DHT22;27754;45.414;11.084;2023-05-07T05:24:28;18.60;79.10
42097;DHT22;27754;45.414;11.084;2023-05-07T05:26:55;18.60;79.10
42097;DHT22;27754;45.414;11.084;2023-05-07T05:29:22;18.70;79.50
42097;DHT22;27754;45.414;11.084;2023-05-07T05:31:49;18.70;79.20
42097;DHT22;27754;45.414;11.084;2023-05-07T05:34:18;18.90;78.90
42097;DHT22;27754;45.414;11.084;2023-05-07T05:36:46;19.00;78.90
42097;DHT22;27754;45.414;11.084;2023-05-07T05:39:14;19.20;79.50
42097;DHT22;27754;45.414;11.084;2023-05-07T05:41:42;19.30;78.90
42097;DHT22;27754;45.414;11.084;2023-05-07T05:44:09;19.40;77.70
42097;DHT22;27754;45.414;11.084;2023-05-07T05:46:37;19.40;78.00
42097;DHT22;27754;45.414;11.084;2023-05-07T05:49:05;19.50;78.60
42097;DHT22;27754;45.414;11.084;2023-05-07T05:51:32;19.70;78.00
42097;DHT22;27754;45.414;11.084;2023-05-07T05:54:00;19.90;77.00
42097;DHT22;27754;45.414;11.084;2023-05-07T05:56:28;19.90;76.30
42097;DHT22;27754;45.414;11.084;2023-05-07T05:58:55;19.90;76.50
42097;DHT22;27754;45.414;11.084;2023-05-07T06:01:22;20.00;76.50
42097;DHT22;27754;45.414;11.084;2023-05-07T06:03:51;20.10;76.70
42097;DHT22;27754;45.414;11.084;2023-05-07T06:06:18;19.90;77.40
42097;DHT22;27754;45.414;11.084;2023-05-07T06:08:45;20.40;76.90
42097;DHT22;27754;45.414;11.084;2023-05-07T06:11:17;20.70;74.80
42097;DHT22;27754;45.414;11.084;2023-05-07T06:13:45;20.70;75.50
42097;DHT22;27754;45.414;11.084;2023-05-07T06:16:12;20.70;75.40
42097;DHT22;27754;45.414;11.084;2023-05-07T06:18:39;20.50;75.70
42097;DHT22;27754;45.414;11.084;2023-05-07T06:21:06;20.90;74.30
42097;DHT22;27754;45.414;11.084;2023-05-07T06:23:34;21.10;73.20
42097;DHT22;27754;45.414;11.084;2023-05-07T06:26:03;21.30;70.80
42097;DHT22;27754;45.414;11.084;2023-05-07T06:28:35;21.40;67.20
42097;DHT22;27754;45.414;11.084;2023-05-07T06:31:19;21.90;67.00
42097;DHT22;27754;45.414;11.084;2023-05-07T06:33:57;21.90;66.00
42097;DHT22;27754;45.414;11.084;2023-05-07T06:36:31;22.10;64.40
42097;DHT22;27754;45.414;11.084;2023-05-07T06:39:03;22.00;66.20
42097;DHT22;27754;45.414;11.084;2023-05-07T06:41:30;21.70;66.80
42097;DHT22;27754;45.414;11.084;2023-05-07T06:44:02;21.90;66.90
42097;DHT22;27754;45.414;11.084;2023-05-07T06:46:35;22.20;66.80
42097;DHT22;27754;45.414;11.084;2023-05-07T06:49:04;22.30;67.90
42097;DHT22;27754;45.414;11.084;2023-05-07T06:51:31;22.40;67.30
42097;DHT22;27754;45.414;11.084;2023-05-07T06:54:02;23.10;65.70
42097;DHT22;27754;45.414;11.084;2023-05-07T06:56:32;23.40;64.80
42097;DHT22;27754;45.414;11.084;2023-05-07T06:59:01;23.40;64.50
42097;DHT22;27754;45.414;11.084;2023-05-07T07:01:33;23.40;64.60
42097;DHT22;27754;45.414;11.084;2023-05-07T07:04:01;23.50;64.60
42097;DHT22;27754;45.414;11.084;2023-05-07T07:06:29;23.60;64.30
42097;DHT22;27754;45.414;11.084;2023-05-07T07:09:00;23.70;63.30
42097;DHT22;27754;45.414;11.084;2023-05-07T07:11:27;23.70;63.10
42097;DHT22;27754;45.414;11.084;2023-05-07T07:13:55;23.80;62.80
42097;DHT22;27754;45.414;11.084;2023-05-07T07:16:22;23.80;62.50
42097;DHT22;27754;45.414;11.084;2023-05-07T07:18:51;23.70;62.10
42097;DHT22;27754;45.414;11.084;2023-05-07T07:21:19;23.80;62.40
42097;DHT22;27754;45.414;11.084;2023-05-07T07:23:46;23.70;62.80
42097;DHT22;27754;45.414;11.084;2023-05-07T07:26:14;23.60;63.90
42097;DHT22;27754;45.414;11.084;2023-05-07T07:28:43;23.70;64.60
42097;DHT22;27754;45.414;11.084;2023-05-07T07:31:13;23.50;65.10
42097;DHT22;27754;45.414;11.084;2023-05-07T07:33:40;23.60;63.50
42097;DHT22;27754;45.414;11.084;2023-05-07T07:36:07;23.70;64.70
42097;DHT22;27754;45.414;11.084;2023-05-07T07:38:35;23.90;64.10
42097;DHT22;27754;45.414;11.084;2023-05-07T07:41:02;24.00;64.30
42097;DHT22;27754;45.414;11.084;2023-05-07T07:43:30;24.10;64.20
42097;DHT22;27754;45.414;11.084;2023-05-07T07:45:57;24.30;62.30
42097;DHT22;27754;45.414;11.084;2023-05-07T07:48:25;24.60;63.00
42097;DHT22;27754;45.414;11.084;2023-05-07T07:50:53;24.90;62.30
42097;DHT22;27754;45.414;11.084;2023-05-07T07:53:20;25.10;62.00
42097;DHT22;27754;45.414;11.084;2023-05-07T07:55:47;24.90;61.80
42097;DHT22;27754;45.414;11.084;2023-05-07T07:58:17;25.10;61.50
42097;DHT22;27754;45.414;11.084;2023-05-07T08:00:44;25.50;59.10
42097;DHT22;27754;45.414;11.084;2023-05-07T08:03:12;25.70;57.80
42097;DHT22;27754;45.414;11.084;2023-05-07T08:05:43;25.80;57.80
42097;DHT22;27754;45.414;11.084;2023-05-07T08:08:10;25.60;57.20
42097;DHT22;27754;45.414;11.084;2023-05-07T08:10:39;25.40;57.50
42097;DHT22;27754;45.414;11.084;2023-05-07T08:13:13;25.40;55.90
42097;DHT22;27754;45.414;11.084;2023-05-07T08:15:41;25.40;57.10
42097;DHT22;27754;45.414;11.084;2023-05-07T08:18:09;25.20;57.90
42097;DHT22;27754;45.414;11.084;2023-05-07T08:20:37;25.60;55.70
42097;DHT22;27754;45.414;11.084;2023-05-07T08:23:08;25.80;55.90
42097;DHT22;27754;45.414;11.084;2023-05-07T08:25:39;25.60;56.20
42097;DHT22;27754;45.414;11.084;2023-05-07T08:28:07;25.50;56.40
42097;DHT22;27754;45.414;11.084;2023-05-07T08:30:37;25.30;56.20
42097;DHT22;27754;45.414;11.084;2023-05-07T08:33:04;25.30;56.60
42097;DHT22;27754;45.414;11.084;2023-05-07T08:35:31;25.00;57.30
42097;DHT22;27754;45.414;11.084;2023-05-07T08:37:58;25.00;55.90
42097;DHT22;27754;45.414;11.084;2023-05-07T08:40:26;25.10;57.30
42097;DHT22;27754;45.414;11.084;2023-05-07T08:42:58;25.40;59.10
42097;DHT22;27754;45.414;11.084;2023-05-07T08:45:28;25.40;58.70
42097;DHT22;27754;45.414;11.084;2023-05-07T08:48:02;25.40;57.60
42097;DHT22;27754;45.414;11.084;2023-05-07T08:50:35;25.40;57.70
42097;DHT22;27754;45.414;11.084;2023-05-07T08:53:04;25.40;57.10
42097;DHT22;27754;45.414;11.084;2023-05-07T08:55:31;25.50;57.40
42097;DHT22;27754;45.414;11.084;2023-05-07T08:58:00;25.60;57.40
42097;DHT22;27754;45.414;11.084;2023-05-07T09:00:29;25.80;57.20
42097;DHT22;27754;45.414;11.084;2023-05-07T09:02:58;25.90;57.20
42097;DHT22;27754;45.414;11.084;2023-05-07T09:05:26;26.20;56.90
42097;DHT22;27754;45.414;11.084;2023-05-07T09:07:53;26.20;55.30
42097;DHT22;27754;45.414;11.084;2023-05-07T09:10:26;26.40;55.80
42097;DHT22;27754;45.414;11.084;2023-05-07T09:12:53;26.70;52.30
42097;DHT22;27754;45.414;11.084;2023-05-07T09:15:20;26.60;54.00
42097;DHT22;27754;45.414;11.084;2023-05-07T09:17:47;26.70;55.10
42097;DHT22;27754;45.414;11.084;2023-05-07T09:20:14;26.60;54.60
42097;DHT22;27754;45.414;11.084;2023-05-07T09:22:43;26.90;55.60
42097;DHT22;27754;45.414;11.084;2023-05-07T09:25:14;26.90;54.00
42097;DHT22;27754;45.414;11.084;2023-05-07T09:27:42;26.90;55.20
42097;DHT22;27754;45.414;11.084;2023-05-07T09:30:09;26.90;54.10
42097;DHT22;27754;45.414;11.084;2023-05-07T09:32:37;26.50;54.50
42097;DHT22;27754;45.414;11.084;2023-05-07T09:35:17;26.60;55.50
42097;DHT22;27754;45.414;11.084;2023-05-07T09:37:48;26.40;54.20
42097;DHT22;27754;45.414;11.084;2023-05-07T09:40:29;26.40;54.40
42097;DHT22;27754;45.414;11.084;2023-05-07T09:43:13;26.50;53.90
42097;DHT22;27754;45.414;11.084;2023-05-07T09:45:51;26.60;53.30
42097;DHT22;27754;45.414;11.084;2023-05-07T09:48:21;26.70;53.70
42097;DHT22;27754;45.414;11.084;2023-05-07T09:50:55;26.70;53.40
42097;DHT22;27754;45.414;11.084;2023-05-07T09:53:29;26.70;53.80
42097;DHT22;27754;45.414;11.084;2023-05-07T09:55:58;26.80;53.90
42097;DHT22;27754;45.414;11.084;2023-05-07T09:58:28;26.80;52.40
42097;DHT22;27754;45.414;11.084;2023-05-07T10:00:56;26.80;52.30
42097;DHT22;27754;45.414;11.084;2023-05-07T10:03:26;26.90;52.10
42097;DHT22;27754;45.414;11.084;2023-05-07T10:06:00;26.80;53.00
42097;DHT22;27754;45.414;11.084;2023-05-07T10:08:28;26.70;53.20
42097;DHT22;27754;45.414;11.084;2023-05-07T10:10:59;26.60;54.20
42097;DHT22;27754;45.414;11.084;2023-05-07T10:13:28;26.40;54.70
42097;DHT22;27754;45.414;11.084;2023-05-07T10:15:58;26.50;55.10
42097;DHT22;27754;45.414;11.084;2023-05-07T10:18:33;26.50;54.10
42097;DHT22;27754;45.414;11.084;2023-05-07T10:21:20;26.50;53.30
42097;DHT22;27754;45.414;11.084;2023-05-07T10:23:53;26.60;54.20
42097;DHT22;27754;45.414;11.084;2023-05-07T10:26:23;26.90;53.90
42097;DHT22;27754;45.414;11.084;2023-05-07T10:28:56;27.20;52.20
42097;DHT22;27754;45.414;11.084;2023-05-07T10:32:05;27.20;52.20
42097;DHT22;27754;45.414;11.084;2023-05-07T10:34:40;26.90;52.60
42097;DHT22;27754;45.414;11.084;2023-05-07T10:37:09;26.80;52.10
42097;DHT22;27754;45.414;11.084;2023-05-07T10:39:37;26.50;52.00
42097;DHT22;27754;45.414;11.084;2023-05-07T10:42:14;26.90;51.60
42097;DHT22;27754;45.414;11.084;2023-05-07T10:44:47;26.90;51.00
42097;DHT22;27754;45.414;11.084;2023-05-07T10:47:21;27.10;50.60
42097;DHT22;27754;45.414;11.084;2023-05-07T10:52:26;27.20;51.10
42097;DHT22;27754;45.414;11.084;2023-05-07T10:58:30;27.10;49.90
42097;DHT22;27754;45.414;11.084;2023-05-07T11:01:49;27.10;49.70
42097;DHT22;27754;45.414;11.084;2023-05-07T11:04:22;27.00;50.50
42097;DHT22;27754;45.414;11.084;2023-05-07T11:07:26;27.20;51.00
42097;DHT22;27754;45.414;11.084;2023-05-07T11:09:59;27.30;49.20
42097;DHT22;27754;45.414;11.084;2023-05-07T11:15:14;27.10;50.70
42097;DHT22;27754;45.414;11.084;2023-05-07T11:17:56;26.90;50.70
42097;DHT22;27754;45.414;11.084;2023-05-07T11:20:56;27.10;50.70
42097;DHT22;27754;45.414;11.084;2023-05-07T11:26:28;27.30;49.40
42097;DHT22;27754;45.414;11.084;2023-05-07T11:28:55;27.10;50.20
42097;DHT22;27754;45.414;11.084;2023-05-07T11:31:27;27.10;51.00
42097;DHT22;27754;45.414;11.084;2023-05-07T11:33:57;27.00;50.10
42097;DHT22;27754;45.414;11.084;2023-05-07T11:36:25;27.00;50.30
42097;DHT22;27754;45.414;11.084;2023-05-07T11:38:54;27.00;50.40
42097;DHT22;27754;45.414;11.084;2023-05-07T11:41:21;27.10;50.10
42097;DHT22;27754;45.414;11.084;2023-05-07T11:43:56;27.10;50.50
42097;DHT22;27754;45.414;11.084;2023-05-07T11:46:24;27.10;52.20
42097;DHT22;27754;45.414;11.084;2023-05-07T11:48:51;27.10;50.60
42097;DHT22;27754;45.414;11.084;2023-05-07T11:51:19;27.10;49.70
42097;DHT22;27754;45.414;11.084;2023-05-07T11:53:47;27.10;50.70
42097;DHT22;27754;45.414;11.084;2023-05-07T11:56:16;27.00;50.70
42097;DHT22;27754;45.414;11.084;2023-05-07T11:58:44;26.80;51.30
42097;DHT22;27754;45.414;11.084;2023-05-07T12:01:13;26.80;52.40
42097;DHT22;27754;45.414;11.084;2023-05-07T12:03:40;26.80;52.50
42097;DHT22;27754;45.414;11.084;2023-05-07T12:06:10;26.90;51.90
42097;DHT22;27754;45.414;11.084;2023-05-07T12:08:42;26.80;51.50
42097;DHT22;27754;45.414;11.084;2023-05-07T12:11:24;26.70;52.40
42097;DHT22;27754;45.414;11.084;2023-05-07T12:13:53;26.50;52.40
42097;DHT22;27754;45.414;11.084;2023-05-07T12:16:25;26.60;53.00
42097;DHT22;27754;45.414;11.084;2023-05-07T12:18:53;26.90;52.30
42097;DHT22;27754;45.414;11.084;2023-05-07T12:21:22;27.20;51.90
42097;DHT22;27754;45.414;11.084;2023-05-07T12:23:49;27.40;51.20
42097;DHT22;27754;45.414;11.084;2023-05-07T12:26:17;27.50;51.30
42097;DHT22;27754;45.414;11.084;2023-05-07T12:28:46;27.50;50.20
42097;DHT22;27754;45.414;11.084;2023-05-07T12:31:14;27.30;51.00
42097;DHT22;27754;45.414;11.084;2023-05-07T12:33:42;27.40;50.20
42097;DHT22;27754;45.414;11.084;2023-05-07T12:36:12;27.70;48.70
42097;DHT22;27754;45.414;11.084;2023-05-07T12:38:40;27.40;49.90
42097;DHT22;27754;45.414;11.084;2023-05-07T12:41:08;27.30;50.10
42097;DHT22;27754;45.414;11.084;2023-05-07T12:43:36;27.30;51.50
42097;DHT22;27754;45.414;11.084;2023-05-07T12:46:06;27.20;51.90
42097;DHT22;27754;45.414;11.084;2023-05-07T12:48:35;27.10;52.00
42097;DHT22;27754;45.414;11.084;2023-05-07T12:51:02;27.00;50.90
42097;DHT22;27754;45.414;11.084;2023-05-07T12:53:30;27.00;52.20
42097;DHT22;27754;45.414;11.084;2023-05-07T12:55:59;27.30;52.60
42097;DHT22;27754;45.414;11.084;2023-05-07T12:58:31;27.30;51.80
42097;DHT22;27754;45.414;11.084;2023-05-07T13:01:01;27.50;51.30
42097;DHT22;27754;45.414;11.084;2023-05-07T13:03:30;27.30;52.70
42097;DHT22;27754;45.414;11.084;2023-05-07T13:05:59;27.40;52.80
42097;DHT22;27754;45.414;11.084;2023-05-07T13:08:37;27.50;52.50
42097;DHT22;27754;45.414;11.084;2023-05-07T13:11:04;27.60;52.70
42097;DHT22;27754;45.414;11.084;2023-05-07T13:13:32;27.70;51.90
42097;DHT22;27754;45.414;11.084;2023-05-07T13:16:00;27.70;52.80
42097;DHT22;27754;45.414;11.084;2023-05-07T13:18:30;27.80;52.30
42097;DHT22;27754;45.414;11.084;2023-05-07T13:20:58;27.80;52.70
42097;DHT22;27754;45.414;11.084;2023-05-07T13:23:25;28.00;52.30
42097;DHT22;27754;45.414;11.084;2023-05-07T13:25:52;27.60;52.20
42097;DHT22;27754;45.414;11.084;2023-05-07T13:28:20;27.10;52.40
42097;DHT22;27754;45.414;11.084;2023-05-07T13:30:48;27.00;53.20
42097;DHT22;27754;45.414;11.084;2023-05-07T13:33:15;27.30;52.60
42097;DHT22;27754;45.414;11.084;2023-05-07T13:35:42;27.30;53.10
42097;DHT22;27754;45.414;11.084;2023-05-07T13:38:09;27.60;52.70
42097;DHT22;27754;45.414;11.084;2023-05-07T13:40:36;27.60;52.50
42097;DHT22;27754;45.414;11.084;2023-05-07T13:43:05;27.80;51.80
42097;DHT22;27754;45.414;11.084;2023-05-07T13:45:32;27.80;49.70
42097;DHT22;27754;45.414;11.084;2023-05-07T13:47:59;28.00;49.40
42097;DHT22;27754;45.414;11.084;2023-05-07T13:50:26;27.90;49.70
42097;DHT22;27754;45.414;11.084;2023-05-07T13:52:53;27.90;50.10
42097;DHT22;27754;45.414;11.084;2023-05-07T13:55:21;27.90;50.70
42097;DHT22;27754;45.414;11.084;2023-05-07T13:57:55;28.00;50.60
42097;DHT22;27754;45.414;11.084;2023-05-07T14:00:24;27.90;52.10
42097;DHT22;27754;45.414;11.084;2023-05-07T14:02:51;27.90;52.60
42097;DHT22;27754;45.414;11.084;2023-05-07T14:05:19;27.60;52.90
42097;DHT22;27754;45.414;11.084;2023-05-07T14:07:46;27.60;53.30
42097;DHT22;27754;45.414;11.084;2023-05-07T14:10:14;27.70;53.50
42097;DHT22;27754;45.414;11.084;2023-05-07T14:12:41;27.80;53.00
42097;DHT22;27754;45.414;11.084;2023-05-07T14:15:09;28.10;52.60
42097;DHT22;27754;45.414;11.084;2023-05-07T14:17:37;27.90;53.00
42097;DHT22;27754;45.414;11.084;2023-05-07T14:20:04;27.80;53.00
42097;DHT22;27754;45.414;11.084;2023-05-07T14:22:33;27.70;52.70
42097;DHT22;27754;45.414;11.084;2023-05-07T14:25:00;27.80;52.70
42097;DHT22;27754;45.414;11.084;2023-05-07T14:27:32;27.80;53.10
42097;DHT22;27754;45.414;11.084;2023-05-07T14:30:00;27.90;53.30
42097;DHT22;27754;45.414;11.084;2023-05-07T14:32:27;27.90;53.50
42097;DHT22;27754;45.414;11.084;2023-05-07T14:34:54;27.70;52.10
42097;DHT22;27754;45.414;11.084;2023-05-07T14:37:21;27.80;52.80
42097;DHT22;27754;45.414;11.084;2023-05-07T14:39:47;27.90;52.10
42097;DHT22;27754;45.414;11.084;2023-05-07T14:42:17;28.10;51.80
42097;DHT22;27754;45.414;11.084;2023-05-07T14:44:45;28.20;51.30
42097;DHT22;27754;45.414;11.084;2023-05-07T14:47:13;28.20;52.00
42097;DHT22;27754;45.414;11.084;2023-05-07T14:49:40;28.00;51.50
42097;DHT22;27754;45.414;11.084;2023-05-07T14:52:09;28.20;52.00
42097;DHT22;27754;45.414;11.084;2023-05-07T14:54:37;28.00;51.70
42097;DHT22;27754;45.414;11.084;2023-05-07T14:57:06;27.80;51.90
42097;DHT22;27754;45.414;11.084;2023-05-07T14:59:33;27.80;52.30
42097;DHT22;27754;45.414;11.084;2023-05-07T15:02:00;27.90;52.10
42097;DHT22;27754;45.414;11.084;2023-05-07T15:04:31;27.80;51.60
42097;DHT22;27754;45.414;11.084;2023-05-07T15:06:58;27.90;51.90
42097;DHT22;27754;45.414;11.084;2023-05-07T15:09:25;27.90;52.10
42097;DHT22;27754;45.414;11.084;2023-05-07T15:11:52;27.80;52.70
42097;DHT22;27754;45.414;11.084;2023-05-07T15:14:18;27.70;52.70
42097;DHT22;27754;45.414;11.084;2023-05-07T15:16:48;27.30;53.30
42097;DHT22;27754;45.414;11.084;2023-05-07T15:19:15;27.30;53.60
42097;DHT22;27754;45.414;11.084;2023-05-07T15:21:43;27.10;54.30
42097;DHT22;27754;45.414;11.084;2023-05-07T15:24:11;27.20;54.10
42097;DHT22;27754;45.414;11.084;2023-05-07T15:26:39;27.30;53.70
42097;DHT22;27754;45.414;11.084;2023-05-07T15:29:06;27.30;53.50
42097;DHT22;27754;45.414;11.084;2023-05-07T15:31:37;27.30;53.00
42097;DHT22;27754;45.414;11.084;2023-05-07T15:34:05;27.10;53.60
42097;DHT22;27754;45.414;11.084;2023-05-07T15:36:32;27.20;53.40
42097;DHT22;27754;45.414;11.084;2023-05-07T15:38:59;27.20;53.80
42097;DHT22;27754;45.414;11.084;2023-05-07T15:41:26;27.20;54.10